createdAt,value
2019-04-10T00:00:28.893Z,96083.03
2019-04-10T00:05:23.613Z,96081.70
2019-04-10T00:10:19.371Z,96069.78
2019-04-10T00:15:16.104Z,96067.70
2019-04-10T00:20:11.945Z,96067.72
2019-04-10T00:25:08.484Z,96067.22
2019-04-10T00:30:03.282Z,96063.80
2019-04-10T00:34:58.216Z,96067.69
2019-04-10T00:39:53.090Z,96061.03
2019-04-10T00:44:48.025Z,96053.66
2019-04-10T00:49:44.000Z,96068.69
2019-04-10T00:54:39.249Z,96071.26
2019-04-10T00:59:34.486Z,96067.86
2019-04-10T01:04:29.115Z,96059.98
2019-04-10T01:09:23.765Z,96061.34
2019-04-10T01:14:18.446Z,96052.09
2019-04-10T01:19:13.159Z,96048.61
2019-04-10T01:24:08.860Z,96045.27
2019-04-10T01:29:05.040Z,96047.98
2019-04-10T01:34:00.973Z,96051.17
2019-04-10T01:38:55.978Z,96039.02
2019-04-10T01:43:51.112Z,96043.81
2019-04-10T01:48:46.135Z,96045.17
2019-04-10T01:53:41.902Z,96044.02
2019-04-10T01:58:37.465Z,96046.63
2019-04-10T02:03:32.154Z,96029.78
2019-04-10T02:08:26.818Z,96036.02
2019-04-10T02:13:21.503Z,96027.12
2019-04-10T02:18:17.025Z,96026.20
2019-04-10T02:23:12.212Z,96017.33
2019-04-10T02:28:07.058Z,96023.53
2019-04-10T02:33:02.306Z,96017.72
2019-04-10T02:38:00.522Z,96015.22
2019-04-10T02:42:54.672Z,96016.95
2019-04-10T02:47:50.956Z,96014.54
2019-04-10T02:52:46.578Z,96012.16
2019-04-10T02:57:43.691Z,96013.52
2019-04-10T03:02:41.031Z,96013.47
2019-04-10T03:07:35.904Z,96028.33
2019-04-10T03:12:32.168Z,96018.45
2019-04-10T03:17:28.105Z,96022.03
2019-04-10T03:22:23.009Z,96021.75
2019-04-10T03:27:19.068Z,96008.98
2019-04-10T03:32:35.421Z,96010.58
2019-04-10T03:37:26.777Z,96003.75
2019-04-10T03:42:21.406Z,96007.63
2019-04-10T03:47:16.044Z,96005.93
2019-04-10T03:52:11.457Z,96011.16
2019-04-10T03:57:06.658Z,96011.20
2019-04-10T04:02:01.384Z,96003.73
2019-04-10T04:06:56.033Z,96006.59
2019-04-10T04:11:50.662Z,96010.58
2019-04-10T04:16:45.303Z,96005.92
2019-04-10T04:21:40.000Z,96010.89
2019-04-10T04:26:35.052Z,96008.04
2019-04-10T04:31:29.723Z,96007.30
2019-04-10T04:36:24.633Z,96004.36
2019-04-10T04:41:19.629Z,96010.72
2019-04-10T04:46:14.317Z,96011.25
2019-04-10T04:51:09.064Z,96006.69
2019-04-10T04:56:03.908Z,96010.92
2019-04-10T05:00:58.637Z,96013.95
2019-04-10T05:05:53.981Z,96017.49
2019-04-10T05:10:49.695Z,96017.05
2019-04-10T05:15:44.964Z,96021.17
2019-04-10T05:20:46.721Z,96027.27
2019-04-10T05:25:36.177Z,96028.67
2019-04-10T05:30:31.401Z,96028.22
2019-04-10T05:35:26.225Z,96031.58
2019-04-10T05:40:20.837Z,96035.80
2019-04-10T05:45:15.609Z,96037.27
2019-04-10T05:50:16.114Z,96040.96
2019-04-10T05:55:12.223Z,96038.73
2019-04-10T06:00:14.832Z,96037.92
2019-04-10T06:05:09.855Z,96036.30
2019-04-10T06:10:09.924Z,96045.94
2019-04-10T06:15:04.678Z,96051.80
2019-04-10T06:19:59.328Z,96054.90
2019-04-10T06:24:54.648Z,96050.63
2019-04-10T06:29:49.418Z,96049.98
2019-04-10T06:34:44.136Z,96050.69
2019-04-10T06:39:38.832Z,96052.64
2019-04-10T06:44:34.242Z,96048.86
2019-04-10T06:49:29.206Z,96044.28
2019-04-10T06:54:24.708Z,96039.34
2019-04-10T06:59:19.432Z,96042.41
2019-04-10T07:04:14.270Z,96039.13
2019-04-10T07:09:11.739Z,96046.09
2019-04-10T07:14:10.310Z,96050.63
2019-04-10T07:19:06.012Z,96054.97
2019-04-10T07:24:04.969Z,96056.59
2019-04-10T07:28:58.913Z,96054.19
2019-04-10T07:33:54.855Z,96054.78
2019-04-10T07:38:53.880Z,96058.23
2019-04-10T07:43:48.434Z,96065.39
2019-04-10T07:48:46.480Z,96066.77
2019-04-10T07:53:45.186Z,96069.91
2019-04-10T07:58:41.859Z,96069.03
2019-04-10T08:03:38.197Z,96071.88
2019-04-10T08:08:36.177Z,96081.29
2019-04-10T08:13:31.288Z,96082.85
2019-04-10T08:18:27.560Z,96083.48
2019-04-10T08:23:25.968Z,96082.66
2019-04-10T08:28:22.019Z,96079.33
2019-04-10T08:33:19.846Z,96088.12
2019-04-10T08:38:15.250Z,96093.80
2019-04-10T08:43:11.776Z,96085.84
2019-04-10T08:48:07.934Z,96093.44
2019-04-10T08:53:02.646Z,96091.91
2019-04-10T08:57:58.550Z,96094.76
2019-04-10T09:02:53.347Z,96095.94
2019-04-10T09:07:48.550Z,96091.64
2019-04-10T09:12:43.734Z,96089.92
2019-04-10T09:17:39.677Z,96091.13
2019-04-10T09:22:57.222Z,96098.20
2019-04-10T09:27:32.435Z,96097.86
2019-04-10T09:32:28.649Z,96097.17
2019-04-10T09:37:24.342Z,96099.96
2019-04-10T09:42:24.068Z,96097.23
2019-04-10T09:47:18.764Z,96105.91
2019-04-10T09:52:19.515Z,96107.75
2019-04-10T09:57:15.403Z,96103.28
2019-04-10T10:02:20.425Z,96107.42
2019-04-10T10:07:20.711Z,96108.34
2019-04-10T10:12:15.832Z,96113.31
2019-04-10T10:17:10.735Z,96113.70
2019-04-10T10:22:06.151Z,96112.08
2019-04-10T10:27:02.202Z,96112.67
2019-04-10T10:31:57.278Z,96120.02
2019-04-10T10:36:53.231Z,96121.63
2019-04-10T10:41:48.989Z,96119.96
2019-04-10T10:46:44.025Z,96121.58
2019-04-10T10:51:46.755Z,96124.82
2019-04-10T10:56:42.615Z,96116.49
2019-04-10T11:01:38.036Z,96122.33
2019-04-10T11:06:33.154Z,96124.14
2019-04-10T11:11:28.260Z,96124.73
2019-04-10T11:16:23.327Z,96138.66
2019-04-10T11:21:27.822Z,96134.61
2019-04-10T11:26:24.227Z,96126.45
2019-04-10T11:31:19.232Z,96135.84
2019-04-10T11:36:15.125Z,96135.88
2019-04-10T11:41:10.167Z,96132.74
2019-04-10T11:46:05.334Z,96129.99
2019-04-10T11:51:01.137Z,96133.02
2019-04-10T11:56:05.667Z,96139.70
2019-04-10T12:01:08.263Z,96140.98
2019-04-10T12:05:59.831Z,96139.58
2019-04-10T12:16:00.990Z,96150.70
2019-04-10T12:21:01.914Z,96150.98
2019-04-10T12:26:03.279Z,96154.74
2019-04-10T12:31:05.684Z,96152.98
2019-04-10T12:36:06.580Z,96154.48
2019-04-10T12:41:08.880Z,96151.66
2019-04-10T12:46:07.267Z,96153.92
2019-04-10T12:51:07.691Z,96153.34
2019-04-10T12:56:10.164Z,96142.36
2019-04-10T13:01:10.590Z,96150.08
2019-04-10T13:06:12.340Z,96155.02
2019-04-10T13:11:12.028Z,96150.81
2019-04-10T13:16:07.820Z,96158.02
2019-04-10T13:21:02.520Z,96162.22
2019-04-10T13:26:00.990Z,96157.88
2019-04-10T13:30:55.548Z,96161.33
2019-04-10T13:35:51.167Z,96165.47
2019-04-10T13:40:46.012Z,96160.16
2019-04-10T13:45:41.586Z,96163.50
2019-04-10T13:50:36.953Z,96159.08
2019-04-10T13:55:32.692Z,96158.13
2019-04-10T14:00:33.619Z,96157.92
2019-04-10T14:05:31.908Z,96154.59
2019-04-10T14:10:25.083Z,96156.33
2019-04-10T14:15:20.239Z,96161.25
2019-04-10T14:20:20.193Z,96166.64
2019-04-10T14:25:23.027Z,96166.45
2019-04-10T14:30:20.969Z,96165.66
2019-04-10T14:35:16.807Z,96171.78
2019-04-10T14:40:12.285Z,96173.45
2019-04-10T14:45:09.156Z,96176.30
2019-04-10T14:50:05.266Z,96168.36
2019-04-10T14:55:00.114Z,96175.36
2019-04-10T14:59:55.959Z,96173.64
2019-04-10T15:04:51.267Z,96178.55
2019-04-10T15:09:46.467Z,96179.42
2019-04-10T15:14:41.178Z,96189.45
2019-04-10T15:19:36.406Z,96188.67
2019-04-10T15:24:31.263Z,96192.52
2019-04-10T15:29:26.030Z,96190.80
2019-04-10T15:34:20.671Z,96202.30
2019-04-10T15:39:15.451Z,96193.02
2019-04-10T15:44:10.236Z,96196.95
2019-04-10T15:49:09.129Z,96197.58
2019-04-10T15:54:04.139Z,96200.30
2019-04-10T15:58:59.697Z,96201.59
2019-04-10T16:03:54.688Z,96213.62
2019-04-10T16:08:50.360Z,96207.73
2019-04-10T16:13:47.028Z,96217.48
2019-04-10T16:18:42.495Z,96217.16
2019-04-10T16:23:42.155Z,96215.28
2019-04-10T16:28:37.579Z,96205.30
2019-04-10T16:33:32.226Z,96206.60
2019-04-10T16:38:27.036Z,96213.77
2019-04-10T16:43:22.339Z,96216.38
2019-04-10T16:48:18.822Z,96216.67
2019-04-10T16:53:13.873Z,96219.86
2019-04-10T16:58:09.598Z,96221.98
2019-04-10T17:03:05.573Z,96225.35
2019-04-10T17:08:00.357Z,96238.23
2019-04-10T17:12:55.052Z,96240.17
2019-04-10T17:17:50.610Z,96254.02
2019-04-10T17:22:48.558Z,96255.66
2019-04-10T17:27:41.963Z,96270.73
2019-04-10T17:32:38.461Z,96278.53
2019-04-10T17:37:33.881Z,96286.22
2019-04-10T17:42:28.649Z,96282.83
2019-04-10T17:47:23.488Z,96280.53
2019-04-10T17:52:18.732Z,96282.37
2019-04-10T17:57:14.619Z,96287.53
2019-04-10T18:02:11.874Z,96282.66
2019-04-10T18:07:06.689Z,96289.06
2019-04-10T18:12:01.894Z,96291.68
2019-04-10T18:16:56.610Z,96292.16
2019-04-10T18:21:51.642Z,96294.13
2019-04-10T18:26:46.275Z,96297.53
2019-04-10T18:31:41.127Z,96302.88
2019-04-10T18:36:36.327Z,96307.92
2019-04-10T18:41:31.837Z,96307.55
2019-04-10T18:46:27.055Z,96313.56
2019-04-10T18:51:22.084Z,96320.61
2019-04-10T18:56:16.800Z,96332.36
2019-04-10T19:01:18.931Z,96325.78
2019-04-10T19:06:21.039Z,96327.90
2019-04-10T19:11:22.770Z,96324.98
2019-04-10T19:16:13.139Z,96331.05
2019-04-10T19:21:07.881Z,96340.62
2019-04-10T19:26:03.132Z,96342.01
2019-04-10T19:31:11.046Z,96354.19
2019-04-10T19:35:59.453Z,96356.30
2019-04-10T19:40:54.319Z,96361.04
2019-04-10T19:45:50.031Z,96367.69
2019-04-10T19:50:45.642Z,96371.33
2019-04-10T19:55:40.304Z,96371.09
2019-04-10T20:00:37.035Z,96370.27
2019-04-10T20:05:31.681Z,96378.95
2019-04-10T20:10:27.608Z,96376.23
2019-04-10T20:15:22.694Z,96387.05
2019-04-10T20:20:17.402Z,96385.73
2019-04-10T20:25:12.466Z,96388.41
2019-04-10T20:30:09.783Z,96389.48
2019-04-10T20:35:06.091Z,96393.27
2019-04-10T20:40:01.296Z,96397.88
2019-04-10T20:44:56.743Z,96401.75
2019-04-10T20:49:51.703Z,96396.17
2019-04-10T20:54:46.866Z,96398.55
2019-04-10T20:59:42.516Z,96398.27
2019-04-10T21:04:37.474Z,96399.48
2019-04-10T21:09:32.195Z,96395.45
2019-04-10T21:14:27.570Z,96392.25
2019-04-10T21:19:22.669Z,96398.80
2019-04-10T21:24:17.283Z,96399.25
2019-04-10T21:29:16.350Z,96401.13
2019-04-10T21:34:15.765Z,96390.36
2019-04-10T21:39:11.064Z,96393.70
2019-04-10T21:44:06.967Z,96390.73
2019-04-10T21:49:01.661Z,96393.25
2019-04-10T21:53:56.307Z,96390.83
2019-04-10T21:58:50.964Z,96395.95
2019-04-10T22:03:45.647Z,96395.14
2019-04-10T22:08:48.094Z,96403.11
2019-04-10T22:13:42.838Z,96398.63
2019-04-10T22:18:37.469Z,96395.83
2019-04-10T22:23:32.227Z,96398.27
2019-04-10T22:28:26.864Z,96405.22
2019-04-10T22:33:22.256Z,96400.77
2019-04-10T22:38:17.399Z,96397.27
2019-04-10T22:43:12.282Z,96402.95
2019-04-10T22:48:08.249Z,96392.92
2019-04-10T22:53:03.115Z,96390.53
2019-04-10T22:57:57.845Z,96398.84
2019-04-10T23:02:52.829Z,96398.61
2019-04-10T23:07:47.785Z,96391.70
2019-04-10T23:12:52.218Z,96396.19
2019-04-10T23:17:39.049Z,96388.80
2019-04-10T23:22:33.719Z,96399.85
2019-04-10T23:27:28.496Z,96388.51
2019-04-10T23:32:23.544Z,96396.30
2019-04-10T23:37:18.479Z,96400.58
2019-04-10T23:42:13.105Z,96401.71
2019-04-10T23:47:07.818Z,96396.94
2019-04-10T23:52:03.325Z,96395.63
2019-04-10T23:56:58.253Z,96391.70
